createdAt,value
2018-02-07T00:01:28.676Z,1.80
2018-02-07T00:03:57.070Z,1.90
2018-02-07T00:06:25.649Z,1.90
2018-02-07T00:08:54.035Z,1.90
2018-02-07T00:11:22.410Z,1.90
2018-02-07T00:13:53.234Z,1.90
2018-02-07T00:16:21.852Z,1.90
2018-02-07T00:18:50.217Z,1.90
2018-02-07T00:21:18.606Z,1.90
2018-02-07T00:23:46.966Z,1.90
2018-02-07T00:26:15.361Z,1.90
2018-02-07T00:28:43.728Z,1.80
2018-02-07T00:31:12.087Z,1.70
2018-02-07T00:33:40.462Z,1.60
2018-02-07T00:36:08.839Z,1.60
2018-02-07T00:38:36.858Z,1.60
2018-02-07T00:41:05.995Z,1.60
2018-02-07T00:43:34.379Z,1.50
2018-02-07T00:46:02.755Z,1.60
2018-02-07T00:48:31.136Z,1.60
2018-02-07T00:50:59.837Z,1.60
2018-02-07T00:53:28.220Z,1.60
2018-02-07T00:55:56.707Z,1.60
2018-02-07T00:58:25.077Z,1.60
2018-02-07T01:00:53.467Z,1.60
2018-02-07T01:03:21.850Z,1.50
2018-02-07T01:05:50.316Z,1.60
2018-02-07T01:08:18.708Z,1.60
2018-02-07T01:10:47.074Z,1.60
2018-02-07T01:13:15.442Z,1.60
2018-02-07T01:15:44.415Z,1.60
2018-02-07T01:18:12.839Z,1.50
2018-02-07T01:20:41.309Z,1.50
2018-02-07T01:23:09.668Z,1.50
2018-02-07T01:25:38.066Z,1.40
2018-02-07T01:28:06.433Z,1.40
2018-02-07T01:30:34.819Z,1.40
2018-02-07T01:33:03.298Z,1.40
2018-02-07T01:35:31.702Z,1.40
2018-02-07T01:38:00.868Z,1.50
2018-02-07T01:40:29.273Z,1.50
2018-02-07T01:42:57.712Z,1.50
2018-02-07T01:45:26.293Z,1.50
2018-02-07T01:47:54.686Z,1.50
2018-02-07T01:50:23.073Z,1.50
2018-02-07T01:52:51.665Z,1.50
2018-02-07T01:55:20.181Z,1.50
2018-02-07T01:57:48.657Z,1.50
2018-02-07T02:00:17.786Z,1.50
2018-02-07T02:02:46.431Z,1.50
2018-02-07T02:05:15.602Z,1.40
2018-02-07T02:07:43.970Z,1.40
2018-02-07T02:10:12.551Z,1.40
2018-02-07T02:12:41.018Z,1.40
2018-02-07T02:15:09.430Z,1.40
2018-02-07T02:17:38.429Z,1.40
2018-02-07T02:20:07.726Z,1.30
2018-02-07T02:22:36.869Z,1.30
2018-02-07T02:25:05.250Z,1.30
2018-02-07T02:27:33.619Z,1.30
2018-02-07T02:30:02.634Z,1.30
2018-02-07T02:32:31.630Z,1.30
2018-02-07T02:35:00.147Z,1.30
2018-02-07T02:37:29.326Z,1.30
2018-02-07T02:39:57.820Z,1.30
2018-02-07T02:42:26.186Z,1.40
2018-02-07T02:44:54.606Z,1.40
2018-02-07T02:47:23.250Z,1.30
2018-02-07T02:49:51.671Z,1.30
2018-02-07T02:52:20.132Z,1.40
2018-02-07T02:54:48.549Z,1.40
2018-02-07T02:57:16.934Z,1.40
2018-02-07T02:59:45.323Z,1.40
2018-02-07T03:02:13.866Z,1.40
2018-02-07T03:04:42.841Z,1.40
2018-02-07T03:07:11.947Z,1.40
2018-02-07T03:09:40.333Z,1.40
2018-02-07T03:12:08.842Z,1.40
2018-02-07T03:14:37.216Z,1.40
2018-02-07T03:17:05.610Z,1.40
2018-02-07T03:19:34.038Z,1.30
2018-02-07T03:22:02.399Z,1.30
2018-02-07T03:24:31.541Z,1.30
2018-02-07T03:26:59.917Z,1.20
2018-02-07T03:29:28.350Z,1.30
2018-02-07T03:31:57.502Z,1.30
2018-02-07T03:34:25.871Z,1.20
2018-02-07T03:36:54.252Z,1.20
2018-02-07T03:39:22.689Z,1.20
2018-02-07T03:41:51.868Z,1.30
2018-02-07T03:44:20.447Z,1.30
2018-02-07T03:46:49.046Z,1.40
2018-02-07T03:49:17.446Z,1.30
2018-02-07T03:51:45.836Z,1.30
2018-02-07T03:54:14.199Z,1.30
2018-02-07T03:56:43.360Z,1.20
2018-02-07T03:59:11.740Z,1.20
2018-02-07T04:01:40.150Z,1.10
2018-02-07T04:04:09.291Z,1.10
2018-02-07T04:06:37.689Z,1.00
2018-02-07T04:09:06.040Z,1.00
2018-02-07T04:11:34.414Z,1.00
2018-02-07T04:14:02.778Z,1.10
2018-02-07T04:16:31.188Z,1.10
2018-02-07T04:18:59.382Z,1.10
2018-02-07T04:21:27.859Z,1.10
2018-02-07T04:23:56.431Z,1.10
2018-02-07T04:26:24.985Z,1.00
2018-02-07T04:28:53.378Z,1.00
2018-02-07T04:31:21.766Z,1.00
2018-02-07T04:33:49.835Z,1.00
2018-02-07T04:36:18.170Z,1.00
2018-02-07T04:38:46.580Z,1.00
2018-02-07T04:41:15.038Z,1.00
2018-02-07T04:43:43.435Z,1.00
2018-02-07T04:46:11.794Z,1.00
2018-02-07T04:48:40.967Z,1.00
2018-02-07T04:51:10.573Z,0.90
2018-02-07T04:53:40.015Z,0.90
2018-02-07T04:56:08.394Z,0.90
2018-02-07T04:58:36.648Z,0.90
2018-02-07T05:01:05.032Z,0.70
2018-02-07T05:03:33.400Z,0.80
2018-02-07T05:06:01.889Z,0.80
2018-02-07T05:08:30.276Z,0.80
2018-02-07T05:10:58.744Z,0.80
2018-02-07T05:13:27.190Z,0.80
2018-02-07T05:15:56.525Z,0.70
2018-02-07T05:18:24.910Z,0.70
2018-02-07T05:20:53.330Z,0.70
2018-02-07T05:23:21.807Z,0.70
2018-02-07T05:25:50.341Z,0.70
2018-02-07T05:28:18.708Z,0.70
2018-02-07T05:30:47.863Z,0.70
2018-02-07T05:33:16.235Z,0.70
2018-02-07T05:35:44.610Z,0.70
2018-02-07T05:38:12.993Z,0.80
2018-02-07T05:40:41.431Z,0.80
2018-02-07T05:43:09.823Z,0.70
2018-02-07T05:45:38.180Z,0.70
2018-02-07T05:48:06.698Z,0.70
2018-02-07T05:50:35.264Z,0.70
2018-02-07T05:53:03.690Z,0.60
2018-02-07T05:55:32.220Z,0.60
2018-02-07T05:58:00.738Z,0.60
2018-02-07T06:00:29.113Z,0.60
2018-02-07T06:02:57.538Z,0.60
2018-02-07T06:05:26.862Z,0.60
2018-02-07T06:07:55.264Z,0.60
2018-02-07T06:10:23.905Z,0.60
2018-02-07T06:12:52.566Z,0.60
2018-02-07T06:15:22.018Z,0.60
2018-02-07T06:17:50.396Z,0.60
2018-02-07T06:20:18.937Z,0.70
2018-02-07T06:22:48.126Z,0.60
2018-02-07T06:25:17.271Z,0.60
2018-02-07T06:27:45.678Z,0.50
2018-02-07T06:30:14.057Z,0.50
2018-02-07T06:32:42.445Z,0.50
2018-02-07T06:35:10.923Z,0.40
2018-02-07T06:37:39.471Z,0.40
2018-02-07T06:40:07.833Z,0.50
2018-02-07T06:42:36.487Z,0.40
2018-02-07T06:45:05.792Z,0.30
2018-02-07T06:47:35.163Z,0.30
2018-02-07T06:50:03.518Z,0.30
2018-02-07T06:52:31.909Z,0.30
2018-02-07T06:55:00.447Z,0.30
2018-02-07T06:57:29.136Z,0.30
2018-02-07T06:59:57.563Z,0.30
2018-02-07T07:02:25.928Z,0.30
2018-02-07T07:04:54.458Z,0.30
2018-02-07T07:07:23.597Z,0.40
2018-02-07T07:09:51.957Z,0.40
2018-02-07T07:12:20.410Z,0.50
2018-02-07T07:14:49.572Z,0.50
2018-02-07T07:17:18.044Z,0.50
2018-02-07T07:19:46.423Z,0.50
2018-02-07T07:22:14.446Z,0.40
2018-02-07T07:24:42.841Z,0.40
2018-02-07T07:27:11.226Z,0.40
2018-02-07T07:29:40.563Z,0.30
2018-02-07T07:32:08.940Z,0.30
2018-02-07T07:34:37.494Z,0.40
2018-02-07T07:37:05.845Z,0.40
2018-02-07T07:39:34.390Z,0.40
2018-02-07T07:42:02.849Z,0.40
2018-02-07T07:44:31.401Z,0.40
2018-02-07T07:46:59.742Z,0.40
2018-02-07T07:49:29.078Z,0.50
2018-02-07T07:51:57.447Z,0.50
2018-02-07T07:54:25.808Z,0.50
2018-02-07T07:56:54.245Z,0.60
2018-02-07T07:59:22.622Z,0.60
2018-02-07T08:01:50.993Z,0.70
2018-02-07T08:04:19.648Z,0.70
2018-02-07T08:06:48.067Z,0.80
2018-02-07T08:09:16.433Z,0.90
2018-02-07T08:11:45.312Z,0.90
2018-02-07T08:14:13.663Z,0.70
2018-02-07T08:16:42.121Z,0.70
2018-02-07T08:19:11.234Z,0.70
2018-02-07T08:21:39.652Z,0.70
2018-02-07T08:24:08.004Z,0.60
2018-02-07T08:26:36.379Z,0.50
2018-02-07T08:29:05.516Z,0.50
2018-02-07T08:31:33.669Z,0.50
2018-02-07T08:34:02.450Z,0.50
2018-02-07T08:36:31.168Z,0.40
2018-02-07T08:38:59.319Z,0.40
2018-02-07T08:41:27.661Z,0.40
2018-02-07T08:43:56.030Z,0.30
2018-02-07T08:46:25.268Z,0.20
2018-02-07T08:48:53.654Z,0.10
2018-02-07T08:51:22.009Z,0.10
2018-02-07T08:53:50.482Z,0.00
2018-02-07T08:56:18.821Z,0.00
2018-02-07T08:58:47.955Z,0.10
2018-02-07T09:01:16.378Z,0.10
2018-02-07T09:03:45.251Z,0.10
2018-02-07T09:06:13.882Z,0.00
2018-02-07T09:08:43.027Z,-0.10
2018-02-07T09:11:11.414Z,-0.10
2018-02-07T09:13:39.929Z,-0.10
2018-02-07T09:16:09.277Z,-0.10
2018-02-07T09:18:37.809Z,-0.10
2018-02-07T09:21:06.171Z,0.00
2018-02-07T09:23:34.675Z,-0.10
2018-02-07T09:26:03.950Z,0.10
2018-02-07T09:28:32.568Z,0.10
2018-02-07T09:31:02.077Z,0.10
2018-02-07T09:33:31.369Z,0.00
2018-02-07T09:35:59.956Z,0.00
2018-02-07T09:38:29.178Z,-0.10
2018-02-07T09:40:57.574Z,-0.10
2018-02-07T09:43:25.907Z,0.00
2018-02-07T09:45:55.750Z,0.10
2018-02-07T09:48:24.272Z,0.00
2018-02-07T09:50:52.662Z,0.10
2018-02-07T09:53:21.813Z,0.20
2018-02-07T09:55:50.332Z,0.10
2018-02-07T09:58:18.716Z,0.30
2018-02-07T10:00:47.064Z,0.30
2018-02-07T10:03:15.542Z,0.50
2018-02-07T10:05:43.914Z,0.50
2018-02-07T10:08:12.352Z,0.50
2018-02-07T10:10:40.892Z,0.50
2018-02-07T10:13:09.336Z,0.50
2018-02-07T10:15:37.681Z,0.50
2018-02-07T10:18:06.831Z,0.50
2018-02-07T10:20:35.203Z,0.50
2018-02-07T10:23:03.575Z,0.50
2018-02-07T10:25:31.935Z,0.60
2018-02-07T10:28:00.400Z,0.70
2018-02-07T10:30:29.573Z,0.80
2018-02-07T10:32:58.748Z,0.90
2018-02-07T10:35:27.267Z,0.90
2018-02-07T10:37:56.409Z,1.10
2018-02-07T10:40:25.115Z,1.00
2018-02-07T10:42:53.500Z,1.20
2018-02-07T10:45:21.906Z,1.30
2018-02-07T10:47:51.432Z,1.50
2018-02-07T10:50:20.024Z,1.40
2018-02-07T10:52:48.584Z,1.60
2018-02-07T10:55:16.979Z,1.70
2018-02-07T10:57:45.362Z,1.80
2018-02-07T11:00:14.054Z,1.80
2018-02-07T11:02:42.442Z,1.90
2018-02-07T11:05:10.854Z,1.90
2018-02-07T11:07:39.201Z,1.90
2018-02-07T11:10:07.576Z,2.00
2018-02-07T11:12:35.940Z,2.20
2018-02-07T11:15:04.278Z,2.20
2018-02-07T11:17:33.409Z,2.30
2018-02-07T11:20:01.750Z,2.30
2018-02-07T11:22:30.887Z,2.50
2018-02-07T11:24:59.262Z,2.50
2018-02-07T11:27:27.611Z,2.60
2018-02-07T11:29:56.737Z,2.80
2018-02-07T11:32:25.104Z,2.80
2018-02-07T11:34:54.590Z,2.90
2018-02-07T11:37:23.744Z,3.00
2018-02-07T11:39:52.167Z,2.90
2018-02-07T11:42:20.526Z,2.90
2018-02-07T11:44:49.780Z,3.00
2018-02-07T11:47:18.162Z,3.00
2018-02-07T11:49:46.517Z,3.00
2018-02-07T11:52:14.908Z,3.10
2018-02-07T11:54:43.286Z,3.10
2018-02-07T11:57:11.652Z,3.10
2018-02-07T11:59:40.141Z,3.00
2018-02-07T12:02:08.620Z,3.00
2018-02-07T12:04:38.477Z,3.10
2018-02-07T12:07:07.001Z,3.30
2018-02-07T12:09:35.346Z,3.40
2018-02-07T12:12:04.490Z,3.50
2018-02-07T12:14:33.449Z,3.50
2018-02-07T12:17:02.696Z,3.70
2018-02-07T12:19:31.080Z,3.60
2018-02-07T12:21:59.500Z,3.70
2018-02-07T12:24:28.046Z,3.70
2018-02-07T12:26:56.453Z,3.70
2018-02-07T12:29:25.598Z,3.80
2018-02-07T12:31:54.038Z,3.80
2018-02-07T12:34:22.629Z,3.90
2018-02-07T12:36:51.895Z,3.90
2018-02-07T12:39:20.308Z,3.90
2018-02-07T12:41:48.990Z,4.00
2018-02-07T12:44:17.594Z,4.00
2018-02-07T12:46:45.984Z,4.00
2018-02-07T12:49:14.333Z,3.90
2018-02-07T12:51:47.322Z,3.90
2018-02-07T12:54:15.679Z,3.90
2018-02-07T12:56:44.950Z,4.00
2018-02-07T12:59:13.522Z,4.00
2018-02-07T13:01:41.917Z,4.00
2018-02-07T13:04:10.343Z,4.00
2018-02-07T13:06:38.699Z,4.00
2018-02-07T13:09:07.853Z,4.00
2018-02-07T13:11:36.407Z,4.00
2018-02-07T13:14:04.936Z,4.00
2018-02-07T13:16:33.409Z,4.00
2018-02-07T13:19:01.778Z,3.90
2018-02-07T13:21:30.752Z,3.80
2018-02-07T13:23:59.103Z,3.80
2018-02-07T13:26:27.500Z,3.80
2018-02-07T13:28:56.055Z,3.80
2018-02-07T13:31:25.212Z,3.70
2018-02-07T13:33:53.592Z,3.80
2018-02-07T13:36:21.634Z,3.80
2018-02-07T13:38:50.018Z,3.70
2018-02-07T13:41:18.439Z,3.70
2018-02-07T13:43:47.580Z,3.70
2018-02-07T13:46:15.972Z,3.70
2018-02-07T13:48:44.343Z,3.60
2018-02-07T13:51:12.984Z,3.60
2018-02-07T13:53:42.165Z,3.60
2018-02-07T13:56:10.644Z,3.60
2018-02-07T13:58:39.859Z,3.60
2018-02-07T14:01:08.433Z,3.60
2018-02-07T14:03:37.576Z,3.70
2018-02-07T14:06:06.069Z,3.70
2018-02-07T14:08:34.454Z,3.70
2018-02-07T14:11:02.818Z,3.70
2018-02-07T14:13:31.182Z,3.60
2018-02-07T14:15:59.561Z,3.60
2018-02-07T14:18:28.116Z,3.70
2018-02-07T14:20:57.392Z,3.80
2018-02-07T14:23:25.835Z,3.80
2018-02-07T14:25:54.288Z,3.70
2018-02-07T14:28:22.779Z,3.80
2018-02-07T14:30:51.362Z,3.80
2018-02-07T14:33:19.743Z,3.80
2018-02-07T14:35:48.166Z,3.80
2018-02-07T14:38:16.527Z,3.80
2018-02-07T14:40:44.932Z,3.80
2018-02-07T14:43:13.376Z,3.80
2018-02-07T14:45:41.761Z,3.80
2018-02-07T14:48:10.123Z,3.80
2018-02-07T14:50:38.489Z,3.80
2018-02-07T14:53:06.873Z,3.90
2018-02-07T14:55:35.242Z,3.80
2018-02-07T14:58:03.719Z,3.80
2018-02-07T15:00:32.114Z,3.80
2018-02-07T15:03:00.594Z,3.80
2018-02-07T15:05:28.996Z,3.70
2018-02-07T15:07:57.375Z,3.70
2018-02-07T15:10:25.842Z,3.70
2018-02-07T15:12:53.875Z,3.70
2018-02-07T15:15:23.014Z,3.70
2018-02-07T15:17:51.386Z,3.70
2018-02-07T15:20:19.728Z,3.80
2018-02-07T15:22:48.093Z,3.70
2018-02-07T15:25:17.215Z,3.70
2018-02-07T15:27:45.596Z,3.70
2018-02-07T15:30:13.971Z,3.70
2018-02-07T15:32:42.478Z,3.70
2018-02-07T15:35:10.954Z,3.60
2018-02-07T15:37:39.346Z,3.50
2018-02-07T15:40:07.857Z,3.50
2018-02-07T15:42:36.891Z,3.40
2018-02-07T15:45:05.565Z,3.40
2018-02-07T15:47:33.903Z,3.20
2018-02-07T15:50:02.266Z,3.20
2018-02-07T15:52:30.610Z,3.10
2018-02-07T15:54:59.498Z,3.10
2018-02-07T15:57:27.971Z,3.10
2018-02-07T15:59:56.359Z,3.00
2018-02-07T16:02:25.242Z,2.90
2018-02-07T16:04:53.731Z,2.80
2018-02-07T16:07:22.260Z,2.70
2018-02-07T16:09:51.064Z,2.70
2018-02-07T16:12:20.343Z,2.70
2018-02-07T16:14:48.725Z,2.70
2018-02-07T16:17:17.710Z,2.60
2018-02-07T16:19:46.073Z,2.60
2018-02-07T16:22:14.450Z,2.60
2018-02-07T16:24:43.582Z,2.50
2018-02-07T16:27:12.735Z,2.40
2018-02-07T16:29:41.098Z,2.30
2018-02-07T16:32:09.818Z,2.30
2018-02-07T16:34:38.207Z,2.30
2018-02-07T16:37:07.377Z,2.20
2018-02-07T16:39:35.748Z,2.20
2018-02-07T16:42:04.142Z,2.20
2018-02-07T16:44:33.403Z,2.10
2018-02-07T16:47:02.720Z,2.10
2018-02-07T16:49:31.688Z,2.00
2018-02-07T16:52:00.040Z,2.00
2018-02-07T16:54:29.255Z,1.90
2018-02-07T16:56:57.637Z,1.90
2018-02-07T16:59:26.004Z,1.90
2018-02-07T17:01:55.164Z,1.90
2018-02-07T17:04:23.786Z,1.80
2018-02-07T17:06:52.289Z,1.90
2018-02-07T17:09:20.738Z,1.90
2018-02-07T17:11:49.868Z,1.80
2018-02-07T17:14:18.277Z,1.80
2018-02-07T17:16:46.639Z,1.70
2018-02-07T17:19:15.159Z,1.60
2018-02-07T17:21:43.595Z,1.60
2018-02-07T17:24:11.958Z,1.60
2018-02-07T17:26:40.635Z,1.60
2018-02-07T17:29:09.021Z,1.60
2018-02-07T17:31:37.606Z,1.50
2018-02-07T17:34:06.122Z,1.50
2018-02-07T17:36:34.524Z,1.50
2018-02-07T17:39:03.045Z,1.50
2018-02-07T17:41:31.703Z,1.50
2018-02-07T17:44:00.809Z,1.40
2018-02-07T17:46:29.344Z,1.40
2018-02-07T17:48:57.704Z,1.40
2018-02-07T17:51:26.115Z,1.40
2018-02-07T17:53:54.643Z,1.30
2018-02-07T17:56:23.021Z,1.20
2018-02-07T17:58:51.514Z,1.20
2018-02-07T18:01:19.879Z,1.20
2018-02-07T18:03:48.256Z,1.10
2018-02-07T18:06:16.428Z,1.10
2018-02-07T18:08:44.790Z,1.10
2018-02-07T18:11:13.136Z,1.10
2018-02-07T18:13:42.276Z,1.00
2018-02-07T18:16:10.621Z,1.00
2018-02-07T18:18:39.759Z,0.90
2018-02-07T18:21:08.124Z,0.90
2018-02-07T18:23:36.597Z,0.90
2018-02-07T18:26:05.096Z,0.90
2018-02-07T18:28:33.527Z,0.90
2018-02-07T18:31:01.862Z,0.90
2018-02-07T18:33:30.249Z,0.90
2018-02-07T18:35:58.642Z,0.90
2018-02-07T18:38:27.034Z,0.90
2018-02-07T18:40:55.441Z,0.70
2018-02-07T18:43:24.651Z,0.70
2018-02-07T18:45:53.078Z,0.70
2018-02-07T18:48:22.929Z,0.60
2018-02-07T18:50:51.396Z,0.60
2018-02-07T18:53:20.563Z,0.50
2018-02-07T18:55:48.906Z,0.50
2018-02-07T18:58:17.263Z,0.50
2018-02-07T19:00:45.617Z,0.40
2018-02-07T19:03:14.013Z,0.50
2018-02-07T19:05:43.851Z,0.40
2018-02-07T19:08:12.222Z,0.40
2018-02-07T19:10:40.573Z,0.40
2018-02-07T19:13:09.718Z,0.40
2018-02-07T19:15:38.064Z,0.40
2018-02-07T19:18:06.429Z,0.30
2018-02-07T19:20:35.552Z,0.30
2018-02-07T19:23:03.917Z,0.30
2018-02-07T19:25:32.395Z,0.30
2018-02-07T19:28:00.750Z,0.30
2018-02-07T19:30:29.914Z,0.20
2018-02-07T19:32:58.388Z,0.20
2018-02-07T19:35:26.770Z,0.20
2018-02-07T19:37:55.195Z,0.10
2018-02-07T19:40:24.649Z,0.10
2018-02-07T19:42:53.731Z,0.10
2018-02-07T19:45:22.271Z,0.10
2018-02-07T19:47:51.960Z,0.10
2018-02-07T19:52:55.150Z,0.00
2018-02-07T19:55:23.604Z,0.00
2018-02-07T19:57:52.014Z,0.00
2018-02-07T20:00:20.399Z,0.00
2018-02-07T20:02:48.853Z,0.00
2018-02-07T20:05:17.361Z,0.00
2018-02-07T20:07:46.963Z,-0.10
2018-02-07T20:10:15.537Z,-0.10
2018-02-07T20:12:43.913Z,-0.10
2018-02-07T20:15:12.300Z,0.00
2018-02-07T20:17:40.750Z,0.00
2018-02-07T20:20:09.268Z,-0.10
2018-02-07T20:22:37.870Z,-0.10
2018-02-07T20:25:07.010Z,-0.10
2018-02-07T20:27:35.532Z,-0.10
2018-02-07T20:30:04.737Z,-0.10
2018-02-07T20:32:33.900Z,-0.10
2018-02-07T20:35:02.285Z,-0.20
2018-02-07T20:37:30.653Z,-0.20
2018-02-07T20:39:59.050Z,-0.20
2018-02-07T20:42:27.479Z,-0.20
2018-02-07T20:44:56.293Z,-0.20
2018-02-07T20:47:25.431Z,-0.20
2018-02-07T20:49:54.627Z,-0.20
2018-02-07T20:52:23.899Z,-0.20
2018-02-07T20:54:52.328Z,-0.20
2018-02-07T20:57:20.705Z,-0.20
2018-02-07T20:59:50.083Z,-0.10
2018-02-07T21:02:19.559Z,-0.20
2018-02-07T21:04:48.271Z,-0.20
2018-02-07T21:07:17.462Z,-0.20
2018-02-07T21:09:45.912Z,-0.20
2018-02-07T21:12:14.675Z,-0.20
2018-02-07T21:14:43.079Z,-0.10
2018-02-07T21:17:11.529Z,-0.20
2018-02-07T21:19:39.915Z,-0.20
2018-02-07T21:22:08.271Z,-0.30
2018-02-07T21:24:36.775Z,-0.30
2018-02-07T21:27:05.156Z,-0.30
2018-02-07T21:29:33.567Z,-0.30
2018-02-07T21:32:01.948Z,-0.30
2018-02-07T21:34:30.328Z,-0.30
2018-02-07T21:36:58.695Z,-0.30
2018-02-07T21:39:26.555Z,-0.30
2018-02-07T21:41:55.129Z,-0.30
2018-02-07T21:44:23.446Z,-0.30
2018-02-07T21:46:51.835Z,-0.40
2018-02-07T21:49:20.961Z,-0.30
2018-02-07T21:51:49.612Z,-0.30
2018-02-07T21:54:18.781Z,-0.40
2018-02-07T21:56:47.209Z,-0.40
2018-02-07T21:59:15.636Z,-0.50
2018-02-07T22:01:44.022Z,-0.40
2018-02-07T22:04:12.406Z,-0.40
2018-02-07T22:06:41.603Z,-0.50
2018-02-07T22:09:09.970Z,-0.50
2018-02-07T22:11:38.352Z,-0.50
2018-02-07T22:14:06.880Z,-0.50
2018-02-07T22:16:35.340Z,-0.50
2018-02-07T22:19:03.894Z,-0.60
2018-02-07T22:21:32.414Z,-0.60
2018-02-07T22:24:00.835Z,-0.50
2018-02-07T22:26:29.447Z,-0.50
2018-02-07T22:28:57.847Z,-0.50
2018-02-07T22:31:26.367Z,-0.50
2018-02-07T22:33:54.743Z,-0.50
2018-02-07T22:36:23.165Z,-0.50
2018-02-07T22:38:51.565Z,-0.60
2018-02-07T22:41:19.939Z,-0.50
2018-02-07T22:43:48.359Z,-0.40
2018-02-07T22:46:16.713Z,-0.40
2018-02-07T22:48:45.174Z,-0.40
2018-02-07T22:51:14.996Z,-0.60
2018-02-07T22:53:43.419Z,-0.60
2018-02-07T22:56:11.824Z,-0.60
2018-02-07T22:58:40.489Z,-0.60
2018-02-07T23:01:08.892Z,-0.50
2018-02-07T23:03:37.463Z,-0.60
2018-02-07T23:06:05.844Z,-0.70
2018-02-07T23:08:34.237Z,-0.60
2018-02-07T23:11:03.428Z,-0.60
2018-02-07T23:13:31.824Z,-0.60
2018-02-07T23:16:00.986Z,-0.50
2018-02-07T23:18:29.573Z,-0.50
2018-02-07T23:20:57.921Z,-0.50
2018-02-07T23:23:26.291Z,-0.50
2018-02-07T23:25:54.848Z,-0.40
2018-02-07T23:28:24.090Z,-0.50
2018-02-07T23:30:52.514Z,-0.50
2018-02-07T23:33:21.823Z,-0.60
2018-02-07T23:35:50.946Z,-0.60
2018-02-07T23:38:19.452Z,-0.60
2018-02-07T23:40:47.896Z,-0.70
2018-02-07T23:43:16.283Z,-0.70
2018-02-07T23:45:44.639Z,-0.80
2018-02-07T23:48:13.064Z,-0.80
2018-02-07T23:50:41.467Z,-0.80
2018-02-07T23:53:09.954Z,-0.90
2018-02-07T23:55:38.292Z,-0.90
2018-02-07T23:58:06.668Z,-1.00
